Terminal Aerodrome Forecast
Issued by NWS

Home | Current Version | Previous Version | Text Only | Print | Product List | Glossary On
Versions: 1 2 3 4 5 6 7 8 9 10 11 12 13 14 15 16 17 18 19 20 21 22 23 24 25
141
FTUS41 KOKX 252226 AAA
TAFHPN
TAF AMD
KHPN 252226Z 2522/2618 04006KT P6SM -RA SCT025 BKN035
      TEMPO 2522/2524 2SM -RA BR BKN025 BKN035
     FM260000 04006KT P6SM OVC015
      TEMPO 2600/2602 OVC009
     FM260600 05006KT P6SM OVC025
     FM260900 06007KT P6SM SCT025 OVC035
     FM261400 09007KT 4SM -RA BR OVC025
     FM261600 08008KT 4SM -RA BR OVC015
      AMD NOT SKED=

USA.gov is the U.S. government's official web portal to all federal, state and local government web resources and services.